KMDZ

Taylor County Airport

Medford, Wisconsin, USA
METAR KMDZ 222115Z AUTO 30015G22KT 10SM CLR 12/M03 A2994 RMK AO2 T01211031
Observed Flight Rules
Oct-22 @ 21:15 UTC (6 minutes ago) Visual Flight Rules
Wind Visibility Clouds
300° at 15 knots
 Gusting to 22 knots
10 miles
  • Clear skies
Temperatures Readings
Current 12°C / 54°F
Dewpoint -3°C / 27°F
Humidity 35%
Altimeter 29.94" Hg
Pressure 1014 hPa
Elevation 448
METAR KMDZ 222115Z AUTO 30015G22KT 10SM CLR 12/M03 A2994 RMK AO2 T01211031
Observed Flight Rules
Oct-22 @ 21:15 UTC
(6 minutes ago)
VFR
Wind Visibility
300° at 15 knots
 Gusting to 22 knots
10 miles
Clouds
  • Clear skies
Temperature Dewpoint
12°C / 54°F -3°C / 27°F
Humidity Altimeter Pressure
35% 29.94" Hg 1014 hPa